createdAt,value
2018-11-28T00:00:40.908Z,50.03
2018-11-28T00:03:06.904Z,49.60
2018-11-28T00:05:32.865Z,50.45
2018-11-28T00:07:58.849Z,51.40
2018-11-28T00:10:24.831Z,51.60
2018-11-28T00:12:50.797Z,51.02
2018-11-28T00:15:16.780Z,51.19
2018-11-28T00:17:42.765Z,51.16
2018-11-28T00:20:08.728Z,51.81
2018-11-28T00:22:34.828Z,50.77
2018-11-28T00:25:00.813Z,50.46
2018-11-28T00:27:26.805Z,49.64
2018-11-28T00:29:52.764Z,49.25
2018-11-28T00:32:18.741Z,50.24
2018-11-28T00:34:44.731Z,50.48
2018-11-28T00:37:10.706Z,50.35
2018-11-28T00:39:36.699Z,50.35
2018-11-28T00:42:02.704Z,51.64
2018-11-28T00:44:28.676Z,51.06
2018-11-28T00:46:54.661Z,51.14
2018-11-28T00:49:20.630Z,52.48
2018-11-28T00:51:46.644Z,52.16
2018-11-28T00:54:12.634Z,51.47
2018-11-28T00:56:38.661Z,51.73
2018-11-28T00:59:04.617Z,51.12
2018-11-28T01:01:30.610Z,51.75
2018-11-28T01:03:56.595Z,50.44
2018-11-28T01:06:22.592Z,49.42
2018-11-28T01:08:48.581Z,50.97
2018-11-28T01:11:14.613Z,50.05
2018-11-28T01:13:40.589Z,49.68
2018-11-28T01:16:06.599Z,49.78
2018-11-28T01:18:32.604Z,50.29
2018-11-28T01:20:58.603Z,51.01
2018-11-28T01:23:24.567Z,50.70
2018-11-28T01:25:50.531Z,50.38
2018-11-28T01:28:16.504Z,50.58
2018-11-28T01:30:42.495Z,49.44
2018-11-28T01:33:08.478Z,49.03
2018-11-28T01:35:34.450Z,49.81
2018-11-28T01:38:00.428Z,50.55
2018-11-28T01:40:26.411Z,50.11
2018-11-28T01:42:52.391Z,49.80
2018-11-28T01:45:18.365Z,50.14
2018-11-28T01:47:44.347Z,50.70
2018-11-28T01:50:10.308Z,51.10
2018-11-28T01:52:36.271Z,50.99
2018-11-28T01:55:02.257Z,50.95
2018-11-28T01:57:28.245Z,50.66
2018-11-28T01:59:54.220Z,51.17
2018-11-28T02:02:20.192Z,51.95
2018-11-28T02:04:46.163Z,51.02
2018-11-28T02:07:12.140Z,50.86
2018-11-28T02:09:38.124Z,51.45
2018-11-28T02:12:04.120Z,51.85
2018-11-28T02:14:30.115Z,51.77
2018-11-28T02:16:56.131Z,51.81
2018-11-28T02:19:22.127Z,50.17
2018-11-28T02:21:48.136Z,49.49
2018-11-28T02:24:14.101Z,49.52
2018-11-28T02:26:40.113Z,49.91
2018-11-28T02:29:06.085Z,50.63
2018-11-28T02:31:32.072Z,51.59
2018-11-28T02:33:58.073Z,52.39
2018-11-28T02:36:24.057Z,51.72
2018-11-28T02:38:50.024Z,50.98
2018-11-28T02:41:16.010Z,50.61
2018-11-28T02:43:42.040Z,49.72
2018-11-28T02:46:08.983Z,50.27
2018-11-28T02:48:34.978Z,50.12
2018-11-28T02:51:00.964Z,49.44
2018-11-28T02:53:26.944Z,49.47
2018-11-28T02:55:52.921Z,49.85
2018-11-28T02:58:18.911Z,51.76
2018-11-28T03:00:44.951Z,51.52
2018-11-28T03:03:10.929Z,51.09
2018-11-28T03:05:36.920Z,51.45
2018-11-28T03:08:02.919Z,50.60
2018-11-28T03:10:28.895Z,51.01
2018-11-28T03:12:54.882Z,52.02
2018-11-28T03:15:20.881Z,51.21
2018-11-28T03:17:46.865Z,51.65
2018-11-28T03:20:12.844Z,51.91
2018-11-28T03:22:38.837Z,50.79
2018-11-28T03:25:04.792Z,51.58
2018-11-28T03:27:30.782Z,52.00
2018-11-28T03:29:56.763Z,52.34
2018-11-28T03:32:22.756Z,51.35
2018-11-28T03:34:48.740Z,51.47
2018-11-28T03:37:14.749Z,50.98
2018-11-28T03:39:40.765Z,50.10
2018-11-28T03:42:06.774Z,50.36
2018-11-28T03:44:32.761Z,50.09
2018-11-28T03:46:58.760Z,50.57
2018-11-28T03:49:24.728Z,49.95
2018-11-28T03:51:50.680Z,49.76
2018-11-28T03:54:16.661Z,49.51
2018-11-28T03:56:42.620Z,50.28
2018-11-28T03:59:08.617Z,50.54
2018-11-28T04:01:34.585Z,50.23
2018-11-28T04:04:00.598Z,49.93
2018-11-28T04:06:26.590Z,49.40
2018-11-28T04:08:52.620Z,48.94
2018-11-28T04:11:18.607Z,50.90
2018-11-28T04:13:44.622Z,52.02
2018-11-28T04:16:10.644Z,51.23
2018-11-28T04:18:36.739Z,51.07
2018-11-28T04:21:02.742Z,50.02
2018-11-28T04:23:28.736Z,49.88
2018-11-28T04:25:54.720Z,50.46
2018-11-28T04:28:20.708Z,49.33
2018-11-28T04:30:48.152Z,49.68
2018-11-28T04:33:14.166Z,49.42
2018-11-28T04:35:40.249Z,50.15
2018-11-28T04:38:06.238Z,50.51
2018-11-28T04:40:32.195Z,49.88
2018-11-28T04:42:58.169Z,49.61
2018-11-28T04:45:24.137Z,49.81
2018-11-28T04:47:50.537Z,50.19
2018-11-28T04:50:16.500Z,51.49
2018-11-28T04:52:44.537Z,51.38
2018-11-28T05:00:16.719Z,50.32
2018-11-28T05:02:42.724Z,50.81
2018-11-28T05:05:08.711Z,50.51
2018-11-28T05:07:34.709Z,50.80
2018-11-28T05:10:00.695Z,50.92
2018-11-28T05:12:26.665Z,50.42
2018-11-28T05:14:52.668Z,51.20
2018-11-28T05:17:18.655Z,50.81
2018-11-28T05:19:44.629Z,50.33
2018-11-28T05:22:10.636Z,50.49
2018-11-28T05:24:36.666Z,50.94
2018-11-28T05:27:02.649Z,51.45
2018-11-28T05:29:28.641Z,51.15
2018-11-28T05:31:54.623Z,50.66
2018-11-28T05:34:20.623Z,50.58
2018-11-28T05:36:46.614Z,50.93
2018-11-28T05:39:12.658Z,50.92
2018-11-28T05:41:38.636Z,50.46
2018-11-28T05:44:04.629Z,50.59
2018-11-28T05:46:30.596Z,49.96
2018-11-28T05:48:56.593Z,50.44
2018-11-28T05:51:22.572Z,51.25
2018-11-28T05:53:48.574Z,50.61
2018-11-28T05:56:14.567Z,51.23
2018-11-28T05:58:40.564Z,51.78
2018-11-28T06:01:06.548Z,52.12
2018-11-28T06:03:32.574Z,51.88
2018-11-28T06:05:58.545Z,50.96
2018-11-28T06:08:24.545Z,50.58
2018-11-28T06:10:50.539Z,50.80
2018-11-28T06:13:16.731Z,49.43
2018-11-28T06:15:42.723Z,50.71
2018-11-28T06:18:08.712Z,49.66
2018-11-28T06:20:34.709Z,50.39
2018-11-28T06:23:00.773Z,50.06
2018-11-28T06:25:26.770Z,50.64
2018-11-28T06:27:52.742Z,50.82
2018-11-28T06:30:18.769Z,49.83
2018-11-28T06:32:44.752Z,49.60
2018-11-28T06:35:10.758Z,49.92
2018-11-28T06:37:36.724Z,49.91
2018-11-28T06:40:02.744Z,50.41
2018-11-28T06:42:28.769Z,50.59
2018-11-28T06:44:54.747Z,50.05
2018-11-28T06:47:22.230Z,49.71
2018-11-28T06:49:48.232Z,49.00
2018-11-28T06:52:14.234Z,49.27
2018-11-28T06:54:40.280Z,49.65
2018-11-28T06:57:06.280Z,49.74
2018-11-28T06:59:32.290Z,49.34
2018-11-28T07:01:58.316Z,49.27
2018-11-28T07:04:24.325Z,49.13
2018-11-28T07:06:50.329Z,49.35
2018-11-28T07:09:16.336Z,48.96
2018-11-28T07:11:43.024Z,49.24
2018-11-28T07:14:09.027Z,49.31
2018-11-28T07:16:35.014Z,50.02
2018-11-28T07:19:01.015Z,50.70
2018-11-28T07:21:27.994Z,50.48
2018-11-28T07:23:53.973Z,50.16
2018-11-28T07:26:20.040Z,50.23
2018-11-28T07:28:46.016Z,50.60
2018-11-28T07:31:12.564Z,49.98
2018-11-28T07:33:38.545Z,51.12
2018-11-28T07:36:04.520Z,49.98
2018-11-28T07:38:30.487Z,49.99
2018-11-28T07:40:56.447Z,49.50
2018-11-28T07:43:23.370Z,49.38
2018-11-28T07:45:49.374Z,49.65
2018-11-28T07:48:15.365Z,50.17
2018-11-28T07:50:41.336Z,50.25
2018-11-28T07:53:07.318Z,50.13
2018-11-28T07:55:33.328Z,49.74
2018-11-28T07:57:59.318Z,49.32
2018-11-28T08:00:25.282Z,48.97
2018-11-28T08:02:51.244Z,48.66
2018-11-28T08:05:17.232Z,48.96
2018-11-28T08:07:43.205Z,48.10
2018-11-28T08:10:09.200Z,48.18
2018-11-28T08:12:35.186Z,48.24
2018-11-28T08:15:01.166Z,48.51
2018-11-28T08:17:27.166Z,48.57
2018-11-28T08:19:53.184Z,49.38
2018-11-28T08:22:19.188Z,48.24
2018-11-28T08:24:45.168Z,47.38
2018-11-28T08:27:11.148Z,46.53
2018-11-28T08:29:37.125Z,45.44
2018-11-28T08:32:03.161Z,46.88
2018-11-28T08:34:29.141Z,46.91
2018-11-28T08:36:55.114Z,45.58
2018-11-28T08:39:21.132Z,45.88
2018-11-28T08:41:47.172Z,46.03
2018-11-28T08:44:13.148Z,47.35
2018-11-28T08:46:39.160Z,47.68
2018-11-28T08:49:05.133Z,46.04
2018-11-28T08:51:31.104Z,46.09
2018-11-28T08:53:57.073Z,46.25
2018-11-28T08:56:23.059Z,46.33
2018-11-28T08:58:49.024Z,47.79
2018-11-28T09:01:15.016Z,46.70
2018-11-28T09:03:41.008Z,46.68
2018-11-28T09:06:07.031Z,46.83
2018-11-28T09:08:32.991Z,46.23
2018-11-28T09:10:59.055Z,46.39
2018-11-28T09:13:25.036Z,46.99
2018-11-28T09:15:51.081Z,46.57
2018-11-28T09:18:17.636Z,46.46
2018-11-28T09:20:43.635Z,46.35
2018-11-28T09:23:09.597Z,46.39
2018-11-28T09:25:35.831Z,45.85
2018-11-28T09:28:01.819Z,46.45
2018-11-28T09:30:27.800Z,45.63
2018-11-28T09:32:53.790Z,46.03
2018-11-28T09:35:19.831Z,45.33
2018-11-28T09:37:46.149Z,46.21
2018-11-28T09:40:11.850Z,46.01
2018-11-28T09:42:37.944Z,46.21
2018-11-28T09:45:03.950Z,46.94
2018-11-28T09:47:29.931Z,46.26
2018-11-28T09:49:55.908Z,47.19
2018-11-28T09:52:21.924Z,45.79
2018-11-28T09:54:47.895Z,44.54
2018-11-28T09:57:13.857Z,44.04
2018-11-28T09:59:39.808Z,43.75
2018-11-28T10:02:05.788Z,44.60
2018-11-28T10:04:31.753Z,45.42
2018-11-28T10:06:57.720Z,45.08
2018-11-28T10:09:23.716Z,45.48
2018-11-28T10:11:49.684Z,44.57
2018-11-28T10:14:15.649Z,44.62
2018-11-28T10:16:41.778Z,44.30
2018-11-28T10:19:07.700Z,44.69
2018-11-28T10:21:33.687Z,43.87
2018-11-28T10:23:59.704Z,43.21
2018-11-28T10:26:26.727Z,43.15
2018-11-28T10:28:52.727Z,44.58
2018-11-28T10:31:18.792Z,44.33
2018-11-28T10:33:44.772Z,43.60
2018-11-28T10:36:10.771Z,43.85
2018-11-28T10:38:36.734Z,44.27
2018-11-28T10:41:02.731Z,44.29
2018-11-28T10:43:28.716Z,44.65
2018-11-28T10:45:54.694Z,43.03
2018-11-28T10:48:20.663Z,43.48
2018-11-28T10:50:46.630Z,43.35
2018-11-28T10:53:12.638Z,43.77
2018-11-28T10:55:38.619Z,43.27
2018-11-28T10:58:04.614Z,42.52
2018-11-28T11:00:30.588Z,44.16
2018-11-28T11:02:56.572Z,43.72
2018-11-28T11:05:22.535Z,43.11
2018-11-28T11:07:48.533Z,44.90
2018-11-28T11:10:14.499Z,45.40
2018-11-28T11:17:44.591Z,45.87
2018-11-28T11:20:10.565Z,45.44
2018-11-28T11:22:36.603Z,43.95
2018-11-28T11:25:02.571Z,43.49
2018-11-28T11:27:28.544Z,46.57
2018-11-28T11:29:54.593Z,44.22
2018-11-28T11:32:20.580Z,42.97
2018-11-28T11:34:46.583Z,42.84
2018-11-28T11:37:12.677Z,42.49
2018-11-28T11:39:38.690Z,44.94
2018-11-28T11:42:04.704Z,42.25
2018-11-28T11:44:30.668Z,42.16
2018-11-28T11:46:56.650Z,41.33
2018-11-28T11:49:22.658Z,42.79
2018-11-28T11:51:48.795Z,43.63
2018-11-28T11:54:14.794Z,43.16
2018-11-28T11:56:40.789Z,43.57
2018-11-28T11:59:06.805Z,44.85
2018-11-28T12:01:32.841Z,44.10
2018-11-28T12:03:58.897Z,43.37
2018-11-28T12:06:24.823Z,43.02
2018-11-28T12:08:50.814Z,41.67
2018-11-28T12:11:16.812Z,43.28
2018-11-28T12:13:42.798Z,43.19
2018-11-28T12:16:08.757Z,44.50
2018-11-28T12:18:34.789Z,43.34
2018-11-28T12:21:00.795Z,43.77
2018-11-28T12:23:26.781Z,42.99
2018-11-28T12:25:52.758Z,43.49
2018-11-28T12:28:19.010Z,41.91
2018-11-28T12:30:45.001Z,42.89
2018-11-28T12:33:10.976Z,42.13
2018-11-28T12:35:36.989Z,42.20
2018-11-28T12:38:02.985Z,43.77
2018-11-28T12:40:28.995Z,44.37
2018-11-28T12:42:54.967Z,42.90
2018-11-28T12:45:20.977Z,42.45
2018-11-28T12:47:46.970Z,43.19
2018-11-28T12:50:12.952Z,42.91
2018-11-28T12:52:38.964Z,42.72
2018-11-28T12:55:04.956Z,43.42
2018-11-28T12:57:30.929Z,41.95
2018-11-28T12:59:56.914Z,41.06
2018-11-28T13:02:22.940Z,40.27
2018-11-28T13:04:48.900Z,40.94
2018-11-28T13:07:14.864Z,42.77
2018-11-28T13:09:40.849Z,43.07
2018-11-28T13:12:06.832Z,42.51
2018-11-28T13:14:32.827Z,42.27
2018-11-28T13:16:58.823Z,42.63
2018-11-28T13:19:24.802Z,41.96
2018-11-28T13:21:50.793Z,42.08
2018-11-28T13:24:16.759Z,42.13
2018-11-28T13:26:42.709Z,42.67
2018-11-28T13:29:08.763Z,41.21
2018-11-28T13:31:34.756Z,41.33
2018-11-28T13:34:00.751Z,38.78
2018-11-28T13:36:26.722Z,42.12
2018-11-28T13:38:52.722Z,42.35
2018-11-28T13:41:18.715Z,40.85
2018-11-28T13:43:44.762Z,39.84
2018-11-28T13:46:10.733Z,41.51
2018-11-28T13:48:36.708Z,42.21
2018-11-28T13:51:02.733Z,42.88
2018-11-28T13:53:28.739Z,42.86
2018-11-28T13:56:57.133Z,42.84
2018-11-28T13:58:20.787Z,42.11
2018-11-28T14:00:46.780Z,41.79
2018-11-28T14:03:12.756Z,41.29
2018-11-28T14:05:38.771Z,40.58
2018-11-28T14:08:05.591Z,39.60
2018-11-28T14:10:31.577Z,41.08
2018-11-28T14:12:57.541Z,42.12
2018-11-28T14:15:23.508Z,42.51
2018-11-28T14:17:49.490Z,41.79
2018-11-28T14:20:15.485Z,41.13
2018-11-28T14:22:41.567Z,41.37
2018-11-28T14:25:07.562Z,40.87
2018-11-28T14:27:33.543Z,41.20
2018-11-28T14:29:59.539Z,41.59
2018-11-28T14:32:25.547Z,39.48
2018-11-28T14:34:51.564Z,42.21
2018-11-28T14:37:17.602Z,42.55
2018-11-28T14:39:43.625Z,42.04
2018-11-28T14:42:09.616Z,42.06
2018-11-28T14:44:35.731Z,42.09
2018-11-28T14:47:01.775Z,42.36
2018-11-28T14:49:27.709Z,43.15
2018-11-28T14:51:53.709Z,43.99
2018-11-28T14:54:19.680Z,42.82
2018-11-28T14:56:45.654Z,42.68
2018-11-28T14:59:11.624Z,42.10
2018-11-28T15:01:37.614Z,41.50
2018-11-28T15:04:03.601Z,42.54
2018-11-28T15:06:29.579Z,40.92
2018-11-28T15:08:55.572Z,39.98
2018-11-28T15:11:21.523Z,40.52
2018-11-28T15:13:47.520Z,41.87
2018-11-28T15:16:13.495Z,40.44
2018-11-28T15:18:39.488Z,38.42
2018-11-28T15:21:05.449Z,38.10
2018-11-28T15:23:31.462Z,40.24
2018-11-28T15:25:57.438Z,40.09
2018-11-28T15:30:58.787Z,40.65
2018-11-28T15:33:24.750Z,40.32
2018-11-28T15:35:50.704Z,40.29
2018-11-28T15:38:16.696Z,38.96
2018-11-28T15:40:42.701Z,38.76
2018-11-28T15:43:08.702Z,39.02
2018-11-28T15:45:34.725Z,39.31
2018-11-28T15:48:00.714Z,39.26
2018-11-28T15:50:26.732Z,38.93
2018-11-28T15:52:52.730Z,40.98
2018-11-28T15:55:18.775Z,39.94
2018-11-28T15:57:44.757Z,39.22
2018-11-28T16:00:10.758Z,38.53
2018-11-28T16:02:36.744Z,38.68
2018-11-28T16:05:02.726Z,39.61
2018-11-28T16:07:28.696Z,39.26
2018-11-28T16:17:32.196Z,37.64
2018-11-28T16:19:58.296Z,38.45
2018-11-28T16:22:24.278Z,38.79
2018-11-28T16:27:25.180Z,38.74
2018-11-28T16:29:51.162Z,39.14
2018-11-28T16:34:50.223Z,38.65
2018-11-28T16:37:16.231Z,39.42
2018-11-28T16:39:42.218Z,38.51
2018-11-28T16:42:08.205Z,38.49
2018-11-28T16:44:34.207Z,38.54
2018-11-28T16:47:00.258Z,40.22
2018-11-28T16:49:26.898Z,40.66
2018-11-28T16:51:52.866Z,39.76
2018-11-28T16:54:18.846Z,40.20
2018-11-28T16:56:44.865Z,39.67
2018-11-28T16:59:10.842Z,38.78
2018-11-28T17:01:36.820Z,38.95
2018-11-28T17:04:02.794Z,38.94
2018-11-28T17:06:28.771Z,39.00
2018-11-28T17:08:54.753Z,38.93
2018-11-28T17:11:20.720Z,39.61
2018-11-28T17:13:46.695Z,37.92
2018-11-28T17:18:45.185Z,39.47
2018-11-28T17:21:11.160Z,38.84
2018-11-28T17:23:37.856Z,38.85
2018-11-28T17:26:03.839Z,39.81
2018-11-28T17:28:29.796Z,39.14
2018-11-28T17:30:55.754Z,38.82
2018-11-28T17:33:21.738Z,39.89
2018-11-28T17:35:47.726Z,40.32
2018-11-28T17:38:13.720Z,40.43
2018-11-28T17:40:39.699Z,39.18
2018-11-28T17:43:05.659Z,38.93
2018-11-28T17:45:31.631Z,39.42
2018-11-28T17:47:57.641Z,39.84
2018-11-28T17:50:23.854Z,39.88
2018-11-28T17:52:49.923Z,39.74
2018-11-28T17:55:16.975Z,40.45
2018-11-28T17:57:43.624Z,41.07
2018-11-28T18:00:09.743Z,40.01
2018-11-28T18:02:35.746Z,39.53
2018-11-28T18:05:01.813Z,40.97
2018-11-28T18:07:27.787Z,40.44
2018-11-28T18:09:54.856Z,40.87
2018-11-28T18:12:20.857Z,40.94
2018-11-28T18:14:46.859Z,40.73
2018-11-28T18:17:14.579Z,39.75
2018-11-28T18:19:40.635Z,39.57
2018-11-28T18:22:06.638Z,40.09
2018-11-28T18:24:32.613Z,40.98
2018-11-28T18:26:58.601Z,41.93
2018-11-28T18:29:24.585Z,41.89
2018-11-28T18:31:50.578Z,42.50
2018-11-28T18:34:16.582Z,42.78
2018-11-28T18:36:42.601Z,43.23
2018-11-28T18:39:08.565Z,43.45
2018-11-28T18:41:34.568Z,42.55
2018-11-28T18:44:00.542Z,42.60
2018-11-28T18:46:30.603Z,43.24
2018-11-28T18:48:56.584Z,42.36
2018-11-28T18:51:22.595Z,42.77
2018-11-28T18:53:49.591Z,42.92
2018-11-28T18:56:14.641Z,43.73
2018-11-28T18:58:40.652Z,43.29
2018-11-28T19:01:06.713Z,42.71
2018-11-28T19:03:32.751Z,43.00
2018-11-28T19:05:58.748Z,43.04
2018-11-28T19:08:24.851Z,43.99
2018-11-28T19:10:50.913Z,43.55
2018-11-28T19:13:18.112Z,41.59
2018-11-28T19:15:42.916Z,41.39
2018-11-28T19:18:08.896Z,41.50
2018-11-28T19:20:34.906Z,41.40
2018-11-28T19:23:00.904Z,40.56
2018-11-28T19:25:26.885Z,41.48
2018-11-28T19:27:53.000Z,41.22
2018-11-28T19:30:19.557Z,42.43
2018-11-28T19:32:50.383Z,42.66
2018-11-28T19:35:16.358Z,43.53
2018-11-28T19:37:42.368Z,43.55
2018-11-28T19:40:08.328Z,43.74
2018-11-28T19:42:35.150Z,43.78
2018-11-28T19:45:01.307Z,44.31
2018-11-28T19:47:27.321Z,44.46
2018-11-28T19:49:54.006Z,45.52
2018-11-28T19:52:24.373Z,45.12
2018-11-28T19:54:50.430Z,45.21
2018-11-28T19:57:16.451Z,45.31
2018-11-28T19:59:44.314Z,45.10
2018-11-28T20:02:10.286Z,44.88
2018-11-28T20:04:36.288Z,44.81
2018-11-28T20:07:02.261Z,44.82
2018-11-28T20:09:28.225Z,45.45
2018-11-28T20:11:54.319Z,45.02
2018-11-28T20:14:20.361Z,44.84
2018-11-28T20:19:17.878Z,44.67
2018-11-28T20:24:16.696Z,44.30
2018-11-28T20:26:42.974Z,44.76
2018-11-28T20:29:09.874Z,44.41
2018-11-28T20:31:36.017Z,44.30
2018-11-28T20:34:02.008Z,44.32
2018-11-28T20:36:28.573Z,44.14
2018-11-28T20:38:58.661Z,44.40
2018-11-28T20:41:24.651Z,43.40
2018-11-28T20:43:52.715Z,43.54
2018-11-28T20:46:18.673Z,43.01
2018-11-28T20:48:44.631Z,42.84
2018-11-28T20:51:10.594Z,43.45
2018-11-28T20:53:36.794Z,41.89
2018-11-28T20:56:02.832Z,41.03
2018-11-28T20:58:28.799Z,42.23
2018-11-28T21:00:54.770Z,41.20
2018-11-28T21:03:20.832Z,41.60
2018-11-28T21:05:46.802Z,40.92
2018-11-28T21:08:12.845Z,41.42
2018-11-28T21:10:38.832Z,41.03
2018-11-28T21:13:04.877Z,40.97
2018-11-28T21:15:30.897Z,41.45
2018-11-28T21:17:56.912Z,41.15
2018-11-28T21:20:22.910Z,41.22
2018-11-28T21:40:29.859Z,42.73
2018-11-28T21:42:55.822Z,41.94
2018-11-28T21:45:21.776Z,42.82
2018-11-28T21:47:47.732Z,42.73
2018-11-28T21:50:13.744Z,41.84
2018-11-28T21:52:39.703Z,41.82
2018-11-28T21:55:05.692Z,42.25
2018-11-28T21:57:32.397Z,41.97
2018-11-28T21:59:58.408Z,42.48
2018-11-28T22:02:25.178Z,43.50
2018-11-28T22:04:51.460Z,43.06
2018-11-28T22:07:17.484Z,42.97
2018-11-28T22:09:43.582Z,43.10
2018-11-28T22:12:09.572Z,42.42
2018-11-28T22:14:35.566Z,42.91
2018-11-28T22:17:01.552Z,42.24
2018-11-28T22:19:27.549Z,42.22
2018-11-28T22:21:53.537Z,42.53
2018-11-28T22:24:19.539Z,42.64
2018-11-28T22:26:45.506Z,42.47
2018-11-28T22:29:11.465Z,42.28
2018-11-28T22:31:37.468Z,42.78
2018-11-28T22:34:03.481Z,42.94
2018-11-28T22:36:29.467Z,42.45
2018-11-28T22:38:55.464Z,42.82
2018-11-28T22:41:21.456Z,43.87
2018-11-28T22:43:49.306Z,45.35
2018-11-28T22:46:15.291Z,45.37
2018-11-28T22:48:41.245Z,45.76
2018-11-28T22:51:07.307Z,45.97
2018-11-28T22:53:33.287Z,44.96
2018-11-28T22:55:59.263Z,45.55
2018-11-28T22:58:25.887Z,45.43
2018-11-28T23:00:51.879Z,45.94
2018-11-28T23:03:17.856Z,46.53
2018-11-28T23:05:43.865Z,45.84
2018-11-28T23:08:09.821Z,44.18
2018-11-28T23:10:36.727Z,44.34
2018-11-28T23:13:02.698Z,45.74
2018-11-28T23:15:28.696Z,46.12
2018-11-28T23:17:55.528Z,46.22
2018-11-28T23:20:20.704Z,46.15
2018-11-28T23:22:46.677Z,46.40
2018-11-28T23:25:13.554Z,45.58
2018-11-28T23:27:39.628Z,44.34
2018-11-28T23:30:05.628Z,43.16
2018-11-28T23:32:31.618Z,42.62
2018-11-28T23:34:57.601Z,42.12
2018-11-28T23:37:23.587Z,43.10
2018-11-28T23:39:49.562Z,43.93
2018-11-28T23:42:15.551Z,44.84
2018-11-28T23:44:41.540Z,45.37
2018-11-28T23:47:07.527Z,45.90
2018-11-28T23:49:33.496Z,45.99
2018-11-28T23:51:59.476Z,46.31
2018-11-28T23:54:25.447Z,46.79
2018-11-28T23:56:51.433Z,46.77
2018-11-28T23:59:17.420Z,46.88
